Time;durP1;ratioP1;P1;durP2;ratioP2;P2;SDS_P1;SDS_P2;PMS_P1;PMS_P2;Temp;Humidity;BMP_temperature;BMP_pressure;BME280_temperature;BME280_humidity;BME280_pressure;Samples;Min_cycle;Max_cycle;Signal;HPM_P1;HPM_P2
2023/02/06 00:01:03;;;;;;;16.95;3.22;;;;;;;-3.43;100.00;103370.13;4995234;28;20466;-95
2023/02/06 00:03:29;;;;;;;9.35;3.17;;;;;;;-3.37;100.00;103399.84;4993868;28;20033;-96
2023/02/06 00:05:59;;;;;;;16.75;3.45;;;;;;;-3.50;100.00;103376.53;4996819;28;20113;-94
2023/02/06 00:08:25;;;;;;;13.75;3.67;;;;;;;-3.51;100.00;103347.03;4997452;28;20472;-95
2023/02/06 00:10:51;;;;;;;12.52;2.55;;;;;;;-3.50;100.00;103358.88;4996775;28;20029;-95
2023/02/06 00:13:17;;;;;;;13.40;3.20;;;;;;;-3.52;100.00;103360.44;4981236;28;20023;-95
2023/02/06 00:15:43;;;;;;;17.77;3.63;;;;;;;-3.59;100.00;103353.38;4993058;28;20033;-95
2023/02/06 00:18:09;;;;;;;11.35;2.42;;;;;;;-3.64;100.00;103359.84;4988883;28;20041;-95
2023/02/06 00:20:36;;;;;;;13.25;1.98;;;;;;;-3.46;100.00;103391.06;5008505;28;20030;-94
2023/02/06 00:23:02;;;;;;;16.92;3.83;;;;;;;-3.76;100.00;103351.69;4992899;28;20038;-94
2023/02/06 00:25:27;;;;;;;15.13;2.97;;;;;;;-3.54;100.00;103392.31;4985586;28;20136;-96
2023/02/06 00:27:53;;;;;;;9.32;3.30;;;;;;;-3.82;100.00;103339.66;4996155;28;20026;-95
2023/02/06 00:30:18;;;;;;;13.18;4.88;;;;;;;-3.75;100.00;103355.97;4993321;28;20037;-95
2023/02/06 00:32:44;;;;;;;12.60;4.90;;;;;;;-3.70;100.00;103357.06;4988508;28;20030;-96
2023/02/06 00:35:09;;;;;;;12.82;4.28;;;;;;;-3.54;100.00;103364.53;4996258;28;20373;-95
2023/02/06 00:37:35;;;;;;;12.73;3.33;;;;;;;-3.72;100.00;103340.97;4996501;28;20041;-95
2023/02/06 00:40:00;;;;;;;10.23;2.78;;;;;;;-3.61;100.00;103360.00;4996420;28;20022;-95
2023/02/06 00:42:26;;;;;;;27.15;2.45;;;;;;;-3.58;100.00;103364.34;4992677;28;20064;-95
2023/02/06 00:44:51;;;;;;;15.82;2.80;;;;;;;-3.38;100.00;103377.94;4991940;28;20034;-95
2023/02/06 00:47:17;;;;;;;11.98;2.42;;;;;;;-3.54;100.00;103349.41;4995732;28;20080;-96
2023/02/06 00:49:42;;;;;;;12.85;2.53;;;;;;;-3.43;100.00;103338.97;4996562;28;20030;-95
2023/02/06 00:52:08;;;;;;;18.23;3.72;;;;;;;-3.20;100.00;103372.84;4999610;28;20034;-95
2023/02/06 00:54:34;;;;;;;11.98;1.95;;;;;;;-3.51;100.00;103320.91;4999651;28;20033;-96
2023/02/06 00:56:59;;;;;;;23.45;2.33;;;;;;;-3.35;100.00;103332.59;4995932;28;20107;-96
2023/02/06 00:59:25;;;;;;;19.67;2.80;;;;;;;-3.31;100.00;103344.59;4992967;28;20031;-95
2023/02/06 01:01:50;;;;;;;7.53;2.08;;;;;;;-3.47;100.00;103338.81;4984530;28;20033;-95
2023/02/06 01:04:16;;;;;;;19.85;3.97;;;;;;;-3.45;100.00;103342.28;5001445;28;20034;-95
2023/02/06 01:06:41;;;;;;;12.63;2.92;;;;;;;-3.52;100.00;103342.78;4997642;28;20400;-95
2023/02/06 01:09:07;;;;;;;14.98;3.67;;;;;;;-3.72;100.00;103328.34;5012846;28;20036;-96
2023/02/06 01:11:34;;;;;;;20.60;5.25;;;;;;;-3.57;100.00;103345.88;4994648;28;20403;-96
2023/02/06 01:14:00;;;;;;;17.48;4.80;;;;;;;-3.67;100.00;103337.84;4981799;28;20057;-95
2023/02/06 01:16:26;;;;;;;14.10;4.70;;;;;;;-3.58;100.00;103360.16;4977403;28;20022;-95
2023/02/06 01:18:51;;;;;;;13.27;4.70;;;;;;;-3.68;100.00;103365.56;5007714;28;20041;-96
2023/02/06 01:21:20;;;;;;;22.23;4.43;;;;;;;-3.90;100.00;103362.00;4994530;28;20032;-95
2023/02/06 01:23:48;;;;;;;20.65;4.03;;;;;;;-3.75;100.00;103376.16;4991552;28;20019;-95
2023/02/06 01:26:16;;;;;;;15.07;4.20;;;;;;;-3.83;100.00;103357.22;4979958;28;20026;-96
2023/02/06 01:28:43;;;;;;;16.80;4.38;;;;;;;-3.80;100.00;103348.16;4986053;28;20034;-96
2023/02/06 01:31:16;;;;;;;21.13;3.60;;;;;;;-3.77;100.00;103352.50;4987747;28;20035;-96
2023/02/06 01:33:42;;;;;;;9.55;3.45;;;;;;;-3.91;100.00;103324.91;4993011;28;20377;-95
2023/02/06 01:36:08;;;;;;;20.15;3.75;;;;;;;-3.66;100.00;103348.81;4983544;28;20022;-95
2023/02/06 01:38:34;;;;;;;29.52;5.88;;;;;;;-3.64;100.00;103316.94;4997998;28;20026;-95
2023/02/06 01:41:00;;;;;;;17.17;4.20;;;;;;;-3.60;100.00;103346.59;4987527;28;20077;-96
2023/02/06 01:43:37;;;;;;;19.88;4.55;;;;;;;-3.67;100.00;103334.47;4988806;28;20484;-96
2023/02/06 01:46:03;;;;;;;15.77;3.33;;;;;;;-3.50;100.00;103346.25;4998734;28;20523;-96
2023/02/06 01:48:38;;;;;;;9.77;2.55;;;;;;;-3.24;100.00;103354.19;5000072;28;20026;-96
2023/02/06 01:51:07;;;;;;;22.98;2.55;;;;;;;-3.54;100.00;103316.59;4996226;28;20030;-96
2023/02/06 01:53:34;;;;;;;17.67;5.00;;;;;;;-3.55;100.00;103303.91;4999335;28;20034;-95
2023/02/06 01:56:03;;;;;;;17.45;3.20;;;;;;;-3.56;100.00;103297.09;4995694;28;20034;-96
2023/02/06 01:58:34;;;;;;;18.50;3.25;;;;;;;-3.69;100.00;103305.78;4980415;28;20105;-96
2023/02/06 02:01:01;;;;;;;19.83;3.60;;;;;;;-3.77;100.00;103286.88;4986654;28;20084;-96
2023/02/06 02:03:30;;;;;;;14.27;2.65;;;;;;;-3.66;100.00;103316.00;4999578;28;20030;-95
2023/02/06 02:06:00;;;;;;;13.32;2.88;;;;;;;-3.62;100.00;103312.84;4999005;28;20101;-95
2023/02/06 02:08:32;;;;;;;12.45;2.45;;;;;;;-3.67;100.00;103284.00;4998669;28;20113;-95
2023/02/06 02:11:00;;;;;;;20.65;3.88;;;;;;;-3.43;100.00;103321.28;4995758;28;20037;-96
2023/02/06 02:13:26;;;;;;;13.40;2.60;;;;;;;-3.66;100.00;103310.94;4978576;28;20104;-96
2023/02/06 02:16:04;;;;;;;9.45;2.58;;;;;;;-3.81;100.00;103290.03;4983811;28;20112;-95
2023/02/06 02:19:37;;;;;;;15.30;3.03;;;;;;;-3.75;100.00;103305.50;4995304;28;20026;-95
2023/02/06 02:22:35;;;;;;;10.80;2.42;;;;;;;-3.77;100.00;103294.47;4904453;28;20131;-94
2023/02/06 02:25:36;;;;;;;14.20;3.22;;;;;;;-3.83;100.00;103297.53;4979806;28;20014;-95
2023/02/06 02:28:55;;;;;;;20.08;3.20;;;;;;;-3.72;100.00;103296.41;4979342;28;20034;-95
2023/02/06 02:31:39;;;;;;;14.75;3.20;;;;;;;-3.46;100.00;103319.50;4903020;29;20114;-95
2023/02/06 02:34:26;;;;;;;15.23;5.25;;;;;;;-3.43;100.00;103318.78;4933485;29;20618;-95
2023/02/06 02:37:10;;;;;;;20.38;3.40;;;;;;;-3.26;100.00;103312.84;4986138;28;20146;-94
2023/02/06 02:40:03;;;;;;;20.02;4.18;;;;;;;-3.07;100.00;103322.97;4999259;28;20382;-95
2023/02/06 02:42:53;;;;;;;25.33;6.18;;;;;;;-3.15;100.00;103319.22;4979542;28;20058;-95
2023/02/06 02:45:24;;;;;;;14.35;3.20;;;;;;;-3.32;100.00;103290.66;4979575;28;20030;-95
2023/02/06 02:47:57;;;;;;;;;;;;;;;-3.06;100.00;103317.13;4988922;28;20120;-96
2023/02/06 02:50:23;;;;;;;19.67;4.43;;;;;;;-3.10;100.00;103279.88;5013813;28;19956;-96
2023/02/06 02:52:48;;;;;;;20.05;3.38;;;;;;;-3.10;100.00;103279.88;4998133;28;20029;-94
2023/02/06 02:55:22;;;;;;;14.73;3.25;;;;;;;-3.11;100.00;103277.28;4999097;28;20121;-96
2023/02/06 02:57:53;;;;;;;17.77;3.50;;;;;;;-3.01;100.00;103295.44;4994189;28;20030;-96
2023/02/06 03:00:21;;;;;;;11.90;3.40;;;;;;;-2.93;100.00;103282.28;4979332;28;20022;-96
2023/02/06 03:02:49;;;;;;;12.20;3.10;;;;;;;-2.91;100.00;103280.69;4992173;28;20037;-96
2023/02/06 03:05:19;;;;;;;19.30;3.17;;;;;;;-3.01;100.00;103280.28;4997864;28;20037;-95
2023/02/06 03:08:08;;;;;;;20.75;3.40;;;;;;;-3.01;100.00;103267.66;4996891;28;20036;-95
2023/02/06 03:10:47;;;;;;;16.10;3.03;;;;;;;-2.93;100.00;103264.59;4998348;28;20026;-95
2023/02/06 03:13:33;;;;;;;15.65;3.58;;;;;;;-2.72;100.00;103303.44;4997559;28;20403;-94
2023/02/06 03:16:23;;;;;;;22.80;4.07;;;;;;;-2.66;100.00;103300.31;4998192;28;20116;-95
2023/02/06 03:19:01;;;;;;;14.02;3.60;;;;;;;-2.61;100.00;103294.69;4994968;28;20019;-95
2023/02/06 03:21:28;;;;;;;15.88;3.70;;;;;;;-2.70;100.00;103263.09;4979168;28;20030;-94
2023/02/06 03:23:58;;;;;;;21.50;4.18;;;;;;;-2.71;100.00;103268.91;4998008;28;20025;-95
2023/02/06 03:26:27;;;;;;;25.25;3.85;;;;;;;-2.64;100.00;103292.00;4998038;28;20491;-95
2023/02/06 03:28:57;;;;;;;21.52;4.10;;;;;;;-2.71;100.00;103269.78;5013914;28;20045;-95
2023/02/06 03:31:51;;;;;;;17.20;3.17;;;;;;;-2.84;100.00;103252.38;4997599;28;20026;-95
2023/02/06 03:34:32;;;;;;;22.10;3.40;;;;;;;-2.74;100.00;103289.88;4982289;28;20117;-96
2023/02/06 03:36:59;;;;;;;18.00;3.97;;;;;;;-2.74;100.00;103264.59;4997263;28;20034;-94
2023/02/06 03:39:25;;;;;;;22.23;3.85;;;;;;;-2.83;100.00;103280.25;4997362;28;20080;-94
2023/02/06 03:41:54;;;;;;;12.93;3.67;;;;;;;-2.95;100.00;103268.72;4997636;28;20490;-96
2023/02/06 03:44:25;;;;;;;14.50;3.50;;;;;;;-3.09;100.00;103271.50;4994144;28;20041;-94
2023/02/06 03:46:54;;;;;;;18.73;4.00;;;;;;;-2.97;100.00;103275.38;4979216;28;20054;-94
2023/02/06 03:49:24;;;;;;;18.98;4.63;;;;;;;-3.11;100.00;103263.00;4996890;28;20022;-96
2023/02/06 03:51:58;;;;;;;13.50;3.85;;;;;;;-3.20;100.00;103277.72;4997504;28;20087;-96
2023/02/06 03:54:26;;;;;;;15.82;3.38;;;;;;;-3.25;100.00;103261.50;4977695;28;20447;-93
2023/02/06 03:57:01;;;;;;;19.42;4.45;;;;;;;-3.05;100.00;103293.59;4978017;28;20031;-96
2023/02/06 03:59:28;;;;;;;14.55;3.67;;;;;;;-3.31;100.00;103268.81;4997702;28;20438;-94
2023/02/06 04:01:57;;;;;;;23.98;5.22;;;;;;;-3.39;100.00;103280.22;4997397;28;20018;-96
2023/02/06 04:04:28;;;;;;;16.38;3.75;;;;;;;-3.45;100.00;103281.66;4995922;28;20036;-95
2023/02/06 04:07:06;;;;;;;17.63;4.07;;;;;;;-3.28;100.00;103304.31;4997378;28;20033;-95
2023/02/06 04:09:31;;;;;;;22.63;3.70;;;;;;;-3.20;100.00;103275.22;4977608;28;20295;-94
2023/02/06 04:11:57;;;;;;;21.27;4.10;;;;;;;-3.07;100.00;103285.09;4977461;28;20050;-95
2023/02/06 04:14:22;;;;;;;24.05;4.35;;;;;;;-3.16;100.00;103259.41;4977573;28;20031;-95
2023/02/06 04:16:48;;;;;;;13.55;4.05;;;;;;;-2.94;100.00;103303.31;4977637;28;20038;-96
2023/02/06 04:19:14;;;;;;;16.30;3.83;;;;;;;-3.09;100.00;103289.19;4993392;28;20263;-94
2023/02/06 04:21:39;;;;;;;19.02;5.10;;;;;;;-3.38;100.00;103244.09;4997077;28;20021;-95
2023/02/06 04:24:05;;;;;;;14.50;3.63;;;;;;;-3.31;100.00;103263.78;4993440;28;20088;-95
2023/02/06 04:26:30;;;;;;;16.60;4.32;;;;;;;-3.27;100.00;103269.03;4978199;28;20081;-94
2023/02/06 04:28:56;;;;;;;27.38;3.78;;;;;;;-3.11;100.00;103280.69;4996917;28;20058;-94
2023/02/06 04:31:21;;;;;;;24.45;4.30;;;;;;;-3.13;100.00;103259.53;4996731;28;20040;-95
2023/02/06 04:33:47;;;;;;;23.67;4.68;;;;;;;-3.10;100.00;103263.84;4995474;28;20030;-95
2023/02/06 04:36:12;;;;;;;18.92;3.50;;;;;;;-3.11;100.00;103252.03;4996911;28;20431;-95
2023/02/06 04:38:38;;;;;;;24.50;3.50;;;;;;;-2.95;100.00;103283.88;4993033;28;20038;-93
2023/02/06 04:41:05;;;;;;;15.73;3.28;;;;;;;-3.08;100.00;103275.75;4977050;28;20030;-96
2023/02/06 04:43:32;;;;;;;17.17;3.47;;;;;;;-2.92;100.00;103273.94;4992235;28;20377;-95
2023/02/06 04:45:57;;;;;;;22.38;3.80;;;;;;;-2.75;100.00;103277.19;4996506;28;20163;-95
2023/02/06 04:48:23;;;;;;;24.92;3.70;;;;;;;-2.89;100.00;103259.75;4995580;28;20468;-95
2023/02/06 04:50:49;;;;;;;12.77;3.88;;;;;;;-2.82;100.00;103255.84;5000026;28;20546;-94
2023/02/06 04:53:15;;;;;;;23.42;5.53;;;;;;;-2.87;100.00;103244.66;4995478;28;20041;-95
2023/02/06 04:55:41;;;;;;;15.07;3.70;;;;;;;-2.74;100.00;103258.69;4996148;28;20026;-94
2023/02/06 04:58:06;;;;;;;17.75;4.20;;;;;;;-2.70;100.00;103248.78;4992720;28;20038;-95
2023/02/06 05:00:32;;;;;;;15.63;3.17;;;;;;;-2.69;100.00;103237.84;4976765;28;20026;-95
2023/02/06 05:02:57;;;;;;;16.80;3.92;;;;;;;-2.58;100.00;103245.91;4985357;28;20116;-95
2023/02/06 05:05:23;;;;;;;16.55;4.57;;;;;;;-2.64;100.00;103225.41;4993543;28;20035;-95
2023/02/06 05:07:48;;;;;;;13.32;3.55;;;;;;;-2.51;100.00;103231.81;4995966;28;20022;-95
2023/02/06 05:10:14;;;;;;;29.42;3.80;;;;;;;-2.48;100.00;103247.16;4995972;28;20076;-95
2023/02/06 05:12:40;;;;;;;20.77;3.60;;;;;;;-2.35;100.00;103239.25;4996043;28;20117;-95
2023/02/06 05:15:06;;;;;;;17.63;4.72;;;;;;;-2.40;100.00;103225.56;4996111;28;20245;-94
2023/02/06 05:17:32;;;;;;;18.50;3.08;;;;;;;-2.44;100.00;103211.06;4996335;28;20029;-95
2023/02/06 05:19:58;;;;;;;17.55;3.22;;;;;;;-2.23;100.00;103239.75;4994558;28;20034;-95
2023/02/06 05:22:23;;;;;;;25.48;3.75;;;;;;;-2.24;100.00;103247.31;4995850;28;20053;-95
2023/02/06 05:24:49;;;;;;;21.73;4.05;;;;;;;-2.26;100.00;103216.88;4995455;28;20464;-95
2023/02/06 05:27:14;;;;;;;17.50;3.22;;;;;;;-2.04;100.00;103240.50;4995679;28;20053;-94
2023/02/06 05:29:40;;;;;;;12.15;4.85;;;;;;;-2.23;100.00;103203.47;4995625;28;20054;-94
2023/02/06 05:32:05;;;;;;;22.17;3.20;;;;;;;-2.08;100.00;103239.50;4995729;28;20025;-94
2023/02/06 05:34:31;;;;;;;15.32;3.25;;;;;;;-2.32;100.00;103216.59;4994814;28;20025;-95
2023/02/06 05:36:56;;;;;;;23.80;3.50;;;;;;;-2.22;100.00;103228.84;4995805;28;20471;-94
2023/02/06 05:39:22;;;;;;;22.55;4.25;;;;;;;-2.33;100.00;103232.59;4995636;28;20041;-94
2023/02/06 05:41:48;;;;;;;20.90;3.08;;;;;;;-2.50;100.00;103203.22;4995775;28;20026;-95
2023/02/06 05:44:13;;;;;;;19.70;3.97;;;;;;;-2.42;100.00;103227.16;4995726;28;20034;-95
2023/02/06 05:46:39;;;;;;;13.82;2.65;;;;;;;-2.48;100.00;103221.88;4995848;28;20583;-95
2023/02/06 05:49:04;;;;;;;11.73;2.65;;;;;;;-2.58;100.00;103218.94;4992169;28;20042;-94
2023/02/06 05:51:30;;;;;;;18.10;2.92;;;;;;;-2.71;100.00;103188.88;4975916;28;20026;-95
2023/02/06 05:53:55;;;;;;;19.95;3.10;;;;;;;-2.57;100.00;103237.50;4976022;28;20034;-95
2023/02/06 05:56:21;;;;;;;15.20;2.60;;;;;;;-2.68;100.00;103221.91;4976553;28;20054;-94
2023/02/06 05:58:47;;;;;;;29.67;3.13;;;;;;;-2.69;100.00;103220.16;4976137;28;20069;-95
2023/02/06 06:01:13;;;;;;;24.83;3.63;;;;;;;-2.55;100.00;103224.94;4975911;28;20117;-94
2023/02/06 06:03:38;;;;;;;20.40;2.78;;;;;;;-2.61;100.00;103201.13;4978069;28;20568;-94
2023/02/06 06:06:05;;;;;;;17.38;3.35;;;;;;;-2.48;100.00;103212.59;4995241;28;20153;-95
2023/02/06 06:08:30;;;;;;;21.55;4.00;;;;;;;-2.22;100.00;103251.63;4995021;28;20060;-95
2023/02/06 06:10:56;;;;;;;22.83;2.58;;;;;;;-2.53;100.00;103203.97;4995362;28;20121;-95
2023/02/06 06:13:21;;;;;;;20.63;3.45;;;;;;;-2.37;100.00;103221.47;4995274;28;20034;-95
2023/02/06 06:15:51;;;;;;;17.88;3.70;;;;;;;-2.34;100.00;103235.94;4995272;28;20084;-95
2023/02/06 06:18:18;;;;;;;14.45;2.50;;;;;;;-2.31;100.00;103235.19;4993167;28;20034;-95
2023/02/06 06:20:44;;;;;;;18.70;2.92;;;;;;;-2.34;100.00;103220.78;4991763;28;20492;-94
2023/02/06 06:23:10;;;;;;;16.80;2.67;;;;;;;-2.36;100.00;103217.31;4975813;28;20041;-95
2023/02/06 06:25:35;;;;;;;10.95;3.10;;;;;;;-2.27;100.00;103220.19;4975684;28;20073;-95
2023/02/06 06:28:01;;;;;;;12.02;3.95;;;;;;;-2.30;100.00;103204.88;4975560;28;20504;-94
2023/02/06 06:30:27;;;;;;;10.75;2.85;;;;;;;-2.17;100.00;103213.81;4975986;28;20036;-94
2023/02/06 06:32:52;;;;;;;13.32;3.35;;;;;;;-2.18;100.00;103200.31;4977602;28;20030;-96
2023/02/06 06:35:18;;;;;;;18.45;3.83;;;;;;;-2.07;100.00;103207.47;4994947;28;20067;-95
2023/02/06 06:37:44;;;;;;;23.10;4.65;;;;;;;-1.89;100.00;103215.78;4998608;28;20026;-94
2023/02/06 06:40:10;;;;;;;20.30;4.30;;;;;;;-1.99;100.00;103193.47;4998561;28;20022;-95
2023/02/06 06:42:35;;;;;;;25.55;3.83;;;;;;;-1.84;100.00;103208.38;4998291;28;20384;-94
2023/02/06 06:45:01;;;;;;;22.55;4.70;;;;;;;-1.78;100.00;103201.88;4998627;28;20025;-95
2023/02/06 06:47:26;;;;;;;16.08;3.80;;;;;;;-1.95;100.00;103159.88;4998267;28;20030;-95
2023/02/06 06:49:51;;;;;;;16.45;3.55;;;;;;;-1.63;100.00;103201.59;4997374;28;20061;-95
2023/02/06 06:52:17;;;;;;;16.05;3.80;;;;;;;-1.65;100.00;103179.56;4998083;28;20357;-95
2023/02/06 06:54:43;;;;;;;24.10;4.70;;;;;;;-1.63;100.00;103183.00;4995702;28;20045;-95
2023/02/06 06:57:14;;;;;;;28.92;4.35;;;;;;;-1.76;100.00;103177.47;4999692;28;20046;-96
2023/02/06 06:59:43;;;;;;;17.85;4.47;;;;;;;-1.70;100.00;103188.66;5008411;28;20028;-96
2023/02/06 07:02:09;;;;;;;16.45;3.92;;;;;;;-1.78;100.00;103183.28;5079590;23;20416;-95
2023/02/06 07:04:35;;;;;;;27.70;5.00;;;;;;;-2.03;100.00;103156.19;5015109;28;20518;-96
2023/02/06 07:07:01;;;;;;;21.15;4.95;;;;;;;-1.92;100.00;103181.91;5017491;28;20042;-96
2023/02/06 07:09:32;;;;;;;15.93;4.15;;;;;;;-2.07;100.00;103165.34;5015427;28;20091;-96
2023/02/06 07:12:09;;;;;;;26.35;4.95;;;;;;;-2.04;100.00;103185.69;5024990;28;20026;-96
2023/02/06 07:14:38;;;;;;;22.58;7.32;;;;;;;-2.24;100.00;103162.16;4986937;28;20042;-96
2023/02/06 07:17:07;;;;;;;24.55;4.82;;;;;;;-2.28;100.00;103170.41;5020002;28;20049;-96
2023/02/06 07:22:25;;;;;;;13.45;4.28;;;;;;;-2.39;100.00;103159.00;5226216;22;20065;-96
2023/02/06 07:24:51;;;;;;;24.08;6.75;;;;;;;-2.47;100.00;103162.88;5003562;28;20054;-96
2023/02/06 07:31:17;;;;;;;26.15;4.70;;;;;;;-2.28;100.00;103210.03;4989161;28;20038;-96
2023/02/06 07:34:34;;;;;;;18.13;4.57;;;;;;;-2.65;100.00;103168.94;5008012;28;20038;-96
2023/02/06 07:37:25;;;;;;;15.90;4.55;;;;;;;-2.45;100.00;103212.72;5008373;28;20054;-96
2023/02/06 07:40:21;;;;;;;20.02;4.38;;;;;;;-2.75;100.00;103166.81;5005999;28;20038;-96
2023/02/06 07:43:16;;;;;;;11.20;4.32;;;;;;;-2.78;100.00;103166.69;5001047;28;20038;-96
2023/02/06 07:46:11;;;;;;;20.92;4.90;;;;;;;-2.74;100.00;103193.81;5000153;28;20031;-96
2023/02/06 07:48:52;;;;;;;23.00;5.53;;;;;;;-2.89;100.00;103175.50;4984133;28;20027;-96
2023/02/06 07:51:23;;;;;;;;;;;;;;;-2.42;100.00;103222.09;4986390;28;20015;-96
2023/02/06 07:54:05;;;;;;;15.20;4.68;;;;;;;-2.65;100.00;103163.88;4984778;28;19914;-95
2023/02/06 07:56:50;;;;;;;;;;;;;;;;;;;;;
2023/02/06 07:59:18;;;;;;;21.00;4.50;;;;;;;-2.54;100.00;103186.19;5015469;28;20034;-96
2023/02/06 08:02:02;;;;;;;24.58;5.15;;;;;;;-2.43;100.00;103200.16;5017404;28;20025;-96
2023/02/06 08:04:33;;;;;;;26.08;6.00;;;;;;;-2.26;100.00;103214.34;4998310;28;20034;-95
2023/02/06 08:07:16;;;;;;;;;;;;;;;;;;;;;
2023/02/06 08:09:42;;;;;;;26.10;6.72;;;;;;;-2.02;100.00;103227.09;4996923;28;20444;-95
2023/02/06 08:12:07;;;;;;;29.92;6.63;;;;;;;-2.01;100.00;103220.38;4993871;28;20117;-96
2023/02/06 08:14:33;;;;;;;27.23;7.30;;;;;;;-2.05;100.00;103213.44;4992649;28;20037;-96
2023/02/06 08:16:59;;;;;;;42.10;7.15;;;;;;;-2.03;100.00;103206.78;4993571;28;20022;-96
2023/02/06 08:19:25;;;;;;;19.73;6.38;;;;;;;-2.01;100.00;103190.84;4993831;28;20049;-95
2023/02/06 08:21:50;;;;;;;19.48;6.78;;;;;;;-1.94;100.00;103202.94;4993384;28;20022;-96
2023/02/06 08:24:16;;;;;;;18.73;5.88;;;;;;;-1.87;100.00;103199.00;4993765;28;20076;-95
2023/02/06 08:26:45;;;;;;;26.92;7.07;;;;;;;-1.66;100.00;103213.25;4993790;28;20026;-96
2023/02/06 08:29:13;;;;;;;27.23;7.40;;;;;;;-1.73;100.00;103171.69;4992868;28;20030;-96
2023/02/06 08:31:40;;;;;;;25.70;7.30;;;;;;;-1.40;100.00;103156.84;4993056;28;20026;-94
2023/02/06 08:34:09;;;;;;;24.92;7.00;;;;;;;0.19;100.00;103150.13;4993191;28;20034;-96
2023/02/06 08:36:35;;;;;;;30.52;7.25;;;;;;;-0.07;100.00;103147.69;4992447;28;20030;-96
2023/02/06 08:39:02;;;;;;;25.83;7.50;;;;;;;-0.35;100.00;103170.50;4993719;28;20015;-95
2023/02/06 08:41:31;;;;;;;21.10;7.32;;;;;;;-0.62;100.00;103186.53;4990837;28;20548;-96
2023/02/06 08:43:59;;;;;;;26.38;6.57;;;;;;;-0.81;100.00;103191.81;4992775;28;20023;-95
2023/02/06 08:46:28;;;;;;;31.13;8.90;;;;;;;-1.08;100.00;103174.84;4992892;28;20033;-95
2023/02/06 08:48:55;;;;;;;21.05;6.45;;;;;;;-1.18;100.00;103168.59;4993079;28;20088;-95
2023/02/06 08:51:21;;;;;;;22.17;7.57;;;;;;;-1.25;100.00;103160.72;4995315;28;20026;-95
2023/02/06 08:53:47;;;;;;;20.05;6.30;;;;;;;-1.33;100.00;103163.00;4991222;28;20066;-94
2023/02/06 08:56:13;;;;;;;27.98;7.47;;;;;;;-1.43;100.00;103159.25;4990016;28;20065;-94
2023/02/06 08:58:39;;;;;;;25.88;8.05;;;;;;;-1.27;100.00;103187.66;4991902;28;20034;-95
2023/02/06 09:01:12;;;;;;;21.92;7.85;;;;;;;-1.42;100.00;103178.72;4989046;28;20171;-94
2023/02/06 09:03:38;;;;;;;22.10;6.65;;;;;;;-1.39;100.00;103163.66;4989643;28;20033;-94
2023/02/06 09:06:04;;;;;;;26.50;6.70;;;;;;;-1.30;100.00;103171.56;4988588;28;20031;-93
2023/02/06 09:08:30;;;;;;;30.63;6.03;;;;;;;-1.46;100.00;103135.47;4988964;28;20034;-93
2023/02/06 09:11:03;;;;;;;18.02;6.05;;;;;;;-1.35;100.00;103144.34;4988945;28;20045;-93
2023/02/06 09:13:30;;;;;;;29.52;6.80;;;;;;;-1.32;100.00;103149.50;4989387;28;20026;-92
2023/02/06 09:15:57;;;;;;;20.50;6.35;;;;;;;-1.20;100.00;103154.13;4988134;28;20503;-94
2023/02/06 09:18:22;;;;;;;24.33;6.53;;;;;;;-1.20;100.00;103128.81;4989729;28;20109;-94
2023/02/06 09:20:48;;;;;;;22.35;6.20;;;;;;;-0.90;100.00;103123.94;4989549;28;20569;-94
2023/02/06 09:23:16;;;;;;;28.60;6.30;;;;;;;-0.16;100.00;103116.97;4989274;28;20578;-93
2023/02/06 09:25:41;;;;;;;14.45;6.47;;;;;;;0.94;100.00;103118.31;4987946;28;20038;-94
2023/02/06 09:28:07;;;;;;;24.27;7.28;;;;;;;3.20;100.00;103122.22;4989647;28;20033;-94
2023/02/06 09:30:32;;;;;;;22.52;6.45;;;;;;;4.04;88.64;103114.06;4988628;28;20030;-95
2023/02/06 09:32:58;;;;;;;22.67;6.93;;;;;;;5.73;84.42;103110.47;4989425;28;20049;-94
2023/02/06 09:35:26;;;;;;;24.40;5.47;;;;;;;5.85;79.60;103110.56;4989405;28;20069;-95
2023/02/06 09:37:52;;;;;;;28.73;7.28;;;;;;;4.90;84.01;103084.28;4996851;28;20491;-93
2023/02/06 09:40:23;;;;;;;18.13;5.22;;;;;;;4.91;84.97;103106.47;4994505;28;20034;-95
2023/02/06 09:42:49;;;;;;;20.35;4.63;;;;;;;6.79;76.40;103083.53;4989683;28;20146;-96
2023/02/06 09:45:18;;;;;;;22.20;4.90;;;;;;;6.75;73.71;103071.53;4989016;28;20065;-95
2023/02/06 09:47:52;;;;;;;27.50;4.88;;;;;;;9.16;69.34;103098.03;4988917;28;20113;-96
2023/02/06 09:50:23;;;;;;;18.65;4.35;;;;;;;11.13;63.65;103097.25;4987768;28;20061;-95
2023/02/06 09:52:55;;;;;;;17.55;4.43;;;;;;;9.87;64.85;103103.31;4988320;28;20053;-94
2023/02/06 09:55:28;;;;;;;15.48;4.97;;;;;;;10.12;60.73;103108.19;4988622;28;20038;-96
2023/02/06 09:57:53;;;;;;;21.27;5.10;;;;;;;12.43;54.71;103096.41;4988525;28;20085;-94
2023/02/06 10:00:43;;;;;;;19.55;4.10;;;;;;;14.40;48.27;103092.94;4989976;28;20031;-95
2023/02/06 10:03:20;;;;;;;22.00;4.90;;;;;;;14.79;45.67;103095.19;4991690;28;20031;-95
2023/02/06 10:05:49;;;;;;;20.15;4.45;;;;;;;15.46;43.79;103073.78;4991513;28;20034;-95
2023/02/06 10:08:27;;;;;;;15.85;4.13;;;;;;;16.19;42.33;103065.88;4995528;28;20365;-96
2023/02/06 10:10:57;;;;;;;26.15;5.68;;;;;;;17.80;39.43;103081.72;4986826;28;20432;-96
2023/02/06 10:13:31;;;;;;;22.13;4.85;;;;;;;17.85;37.89;103111.09;4997771;28;20486;-96
2023/02/06 10:16:04;;;;;;;15.85;4.43;;;;;;;19.93;35.56;103093.75;4995735;28;20064;-96
2023/02/06 10:18:40;;;;;;;22.20;4.43;;;;;;;19.19;35.43;103076.72;4995216;28;20109;-95
2023/02/06 10:21:40;;;;;;;25.60;4.50;;;;;;;16.96;39.66;103096.69;4995472;28;20046;-96
2023/02/06 10:24:11;;;;;;;23.02;5.22;;;;;;;17.90;37.93;103098.66;4993472;28;20134;-96
2023/02/06 10:26:39;;;;;;;18.58;4.57;;;;;;;16.51;39.81;103071.56;4994995;28;20026;-96
2023/02/06 10:29:12;;;;;;;26.15;4.30;;;;;;;19.11;35.85;103089.31;4995169;28;20045;-96
2023/02/06 10:31:49;;;;;;;42.45;4.90;;;;;;;19.81;34.27;103116.22;4993265;28;20113;-96
2023/02/06 10:34:27;;;;;;;15.75;3.70;;;;;;;19.78;34.24;103090.19;4993178;28;20066;-96
2023/02/06 10:36:56;;;;;;;18.23;5.25;;;;;;;21.70;32.36;103097.44;5010897;28;20117;-96
2023/02/06 10:39:52;;;;;;;19.98;4.15;;;;;;;23.21;29.88;103087.56;4994437;28;20224;-96
2023/02/06 10:42:28;;;;;;;12.65;4.10;;;;;;;24.72;27.24;103090.78;4994837;28;20072;-96
2023/02/06 10:45:16;;;;;;;18.73;4.60;;;;;;;25.49;26.54;103114.78;4994744;28;20029;-96
2023/02/06 10:47:57;;;;;;;19.38;4.07;;;;;;;25.50;26.03;103079.44;4993885;28;20038;-95
2023/02/06 10:50:26;;;;;;;;;;;;;;;23.26;28.01;103093.38;4995036;28;20049;-96
2023/02/06 10:52:56;;;;;;;12.32;3.80;;;;;;;25.54;26.14;103075.59;4993932;28;19913;-95
2023/02/06 10:55:50;;;;;;;17.30;3.80;;;;;;;25.36;26.39;103082.31;4993122;28;20451;-96
2023/02/06 10:58:34;;;;;;;14.63;3.65;;;;;;;23.50;28.22;103072.34;4981567;28;20038;-96
2023/02/06 11:01:00;;;;;;;25.25;5.22;;;;;;;25.47;25.79;103066.47;4994376;28;20044;-96
2023/02/06 11:03:30;;;;;;;16.75;4.47;;;;;;;25.44;25.86;103073.81;4994329;28;20022;-96
2023/02/06 11:05:57;;;;;;;17.48;4.65;;;;;;;25.63;25.29;103084.59;4994441;28;20499;-95
2023/02/06 11:08:32;;;;;;;20.63;5.38;;;;;;;26.18;25.25;103093.38;4993962;28;20030;-96
2023/02/06 11:11:16;;;;;;;18.98;4.30;;;;;;;26.63;24.39;103081.78;4993501;28;20480;-96
2023/02/06 11:13:42;;;;;;;16.45;4.38;;;;;;;25.45;25.70;103080.78;4995110;28;20480;-96
2023/02/06 11:16:11;;;;;;;13.68;4.00;;;;;;;24.26;27.56;103097.69;4994546;28;20030;-96
2023/02/06 11:18:43;;;;;;;22.20;3.97;;;;;;;23.39;28.37;103088.09;4993531;28;20030;-95
2023/02/06 11:21:11;;;;;;;25.67;4.75;;;;;;;23.32;28.71;103119.31;4992886;28;20415;-96
2023/02/06 11:23:37;;;;;;;16.35;4.35;;;;;;;24.07;27.75;103086.78;4994637;28;20030;-96
2023/02/06 11:26:06;;;;;;;18.25;4.90;;;;;;;24.11;26.86;103078.50;4994534;28;20113;-96
2023/02/06 11:28:34;;;;;;;18.90;4.85;;;;;;;24.76;26.74;103085.13;4994615;28;20018;-96
2023/02/06 11:31:06;;;;;;;15.30;4.75;;;;;;;24.39;27.31;103075.66;4995422;28;20046;-96
2023/02/06 11:33:44;;;;;;;28.02;5.72;;;;;;;25.01;26.83;103083.25;4995635;28;20038;-96
2023/02/06 11:36:30;;;;;;;15.20;3.95;;;;;;;24.84;26.71;103065.22;4992365;28;20027;-96